createdAt,value
2018-07-05T00:00:27.582Z,20.303955
2018-07-05T00:01:32.996Z,20.303955
2018-07-05T00:02:38.399Z,20.273743
2018-07-05T00:03:43.806Z,20.303955
2018-07-05T00:04:49.210Z,20.273743
2018-07-05T00:05:54.627Z,20.263672
2018-07-05T00:07:00.040Z,20.263672
2018-07-05T00:08:05.456Z,20.233459
2018-07-05T00:09:10.861Z,20.233459
2018-07-05T00:10:16.269Z,20.233459
2018-07-05T00:11:21.681Z,20.253601
2018-07-05T00:12:27.088Z,20.233459
2018-07-05T00:13:32.495Z,20.223389
2018-07-05T00:14:37.896Z,20.193176
2018-07-05T00:15:43.300Z,20.183105
2018-07-05T00:16:48.713Z,20.173035
2018-07-05T00:17:54.117Z,20.152893
2018-07-05T00:18:59.520Z,20.142822
2018-07-05T00:20:04.925Z,20.11261
2018-07-05T00:21:10.336Z,20.052185
2018-07-05T00:22:16.735Z,19.99176
2018-07-05T00:23:22.135Z,19.961548
2018-07-05T00:24:27.544Z,19.931335
2018-07-05T00:25:32.948Z,19.870911
2018-07-05T00:26:38.370Z,19.840698
2018-07-05T00:27:43.777Z,19.840698
2018-07-05T00:28:49.181Z,19.86084
2018-07-05T00:29:54.588Z,19.840698
2018-07-05T00:30:59.997Z,19.840698
2018-07-05T00:32:05.402Z,19.840698
2018-07-05T00:33:10.813Z,19.820557
2018-07-05T00:34:17.209Z,19.840698
2018-07-05T00:35:22.614Z,19.810486
2018-07-05T00:36:28.032Z,19.810486
2018-07-05T00:37:33.433Z,19.820557
2018-07-05T00:38:38.838Z,19.790344
2018-07-05T00:39:44.243Z,19.810486
2018-07-05T00:40:49.659Z,19.810486
2018-07-05T00:41:55.070Z,19.790344
2018-07-05T00:43:00.477Z,19.770203
2018-07-05T00:44:05.882Z,19.750061
2018-07-05T00:45:11.298Z,19.750061
2018-07-05T00:46:16.702Z,19.73999
2018-07-05T00:47:22.112Z,19.709778
2018-07-05T00:48:27.526Z,19.709778
2018-07-05T00:49:32.921Z,19.699707
2018-07-05T00:50:38.324Z,19.679565
2018-07-05T00:51:43.740Z,19.669495
2018-07-05T00:52:49.146Z,19.629211
2018-07-05T00:53:54.550Z,19.669495
2018-07-05T00:54:59.953Z,19.629211
2018-07-05T00:56:05.362Z,19.598999
2018-07-05T00:57:10.771Z,19.568787
2018-07-05T00:58:16.180Z,19.568787
2018-07-05T00:59:21.582Z,19.538574
2018-07-05T01:00:26.985Z,19.518433
2018-07-05T01:01:32.394Z,19.498291
2018-07-05T01:02:37.815Z,19.518433
2018-07-05T01:03:43.220Z,19.498291
2018-07-05T01:04:48.622Z,19.498291
2018-07-05T01:05:54.029Z,19.447937
2018-07-05T01:06:59.444Z,19.447937
2018-07-05T01:08:04.848Z,19.417725
2018-07-05T01:09:10.253Z,19.407654
2018-07-05T01:10:15.657Z,19.387512
2018-07-05T01:11:21.059Z,19.377441
2018-07-05T01:12:26.468Z,19.337158
2018-07-05T01:13:31.874Z,19.306946
2018-07-05T01:14:37.276Z,19.296875
2018-07-05T01:15:42.683Z,19.256592
2018-07-05T01:16:48.084Z,19.226379
2018-07-05T01:17:53.497Z,19.216309
2018-07-05T01:18:58.902Z,19.196167
2018-07-05T01:20:04.304Z,19.196167
2018-07-05T01:21:09.710Z,19.165955
2018-07-05T01:22:15.123Z,19.186096
2018-07-05T01:23:20.533Z,19.155884
2018-07-05T01:24:25.936Z,19.145813
2018-07-05T01:25:31.342Z,19.155884
2018-07-05T01:26:36.742Z,19.145813
2018-07-05T01:27:42.153Z,19.145813
2018-07-05T01:28:47.557Z,19.115601
2018-07-05T01:29:52.963Z,19.115601
2018-07-05T01:30:58.364Z,19.085388
2018-07-05T01:32:03.769Z,19.065247
2018-07-05T01:33:09.187Z,19.065247
2018-07-05T01:34:14.592Z,19.065247
2018-07-05T01:35:19.996Z,19.065247
2018-07-05T01:36:25.401Z,19.065247
2018-07-05T01:37:30.817Z,19.014893
2018-07-05T01:38:36.221Z,19.014893
2018-07-05T01:39:41.626Z,19.004822
2018-07-05T01:40:47.026Z,18.974609
2018-07-05T01:41:52.434Z,18.974609
2018-07-05T01:42:58.836Z,18.934326
2018-07-05T01:44:04.239Z,18.934326
2018-07-05T01:45:09.641Z,18.894043
2018-07-05T01:46:15.046Z,18.914185
2018-07-05T01:47:20.455Z,18.894043
2018-07-05T01:48:25.876Z,18.883972
2018-07-05T01:49:31.283Z,18.85376
2018-07-05T01:50:36.686Z,18.833618
2018-07-05T01:51:42.092Z,18.823547
2018-07-05T01:52:47.508Z,18.813477
2018-07-05T01:53:52.911Z,18.783264
2018-07-05T01:54:58.314Z,18.783264
2018-07-05T01:56:03.725Z,18.763123
2018-07-05T01:57:09.125Z,18.763123
2018-07-05T01:58:14.541Z,18.763123
2018-07-05T01:59:19.948Z,18.742981
2018-07-05T02:00:25.352Z,18.742981
2018-07-05T02:01:30.755Z,18.742981
2018-07-05T02:02:36.163Z,18.702698
2018-07-05T02:03:41.588Z,18.702698
2018-07-05T02:04:46.992Z,18.672485
2018-07-05T02:05:52.394Z,18.662415
2018-07-05T02:06:57.796Z,18.662415
2018-07-05T02:08:03.211Z,18.642273
2018-07-05T02:09:08.613Z,18.632202
2018-07-05T02:10:14.017Z,18.632202
2018-07-05T02:11:20.410Z,18.612061
2018-07-05T02:12:25.811Z,18.581848
2018-07-05T02:13:31.227Z,18.581848
2018-07-05T02:14:36.666Z,18.571777
2018-07-05T02:15:42.044Z,18.541565
2018-07-05T02:16:47.457Z,18.541565
2018-07-05T02:17:52.872Z,18.521423
2018-07-05T02:18:58.280Z,18.511353
2018-07-05T02:20:03.681Z,18.521423
2018-07-05T02:21:09.084Z,18.521423
2018-07-05T02:22:14.502Z,18.511353
2018-07-05T02:23:19.910Z,18.491211
2018-07-05T02:24:25.312Z,18.460999
2018-07-05T02:25:30.718Z,18.48114
2018-07-05T02:26:36.123Z,18.48114
2018-07-05T02:27:41.533Z,18.450928
2018-07-05T02:28:46.948Z,18.460999
2018-07-05T02:29:52.354Z,18.460999
2018-07-05T02:30:57.758Z,18.450928
2018-07-05T02:32:03.165Z,18.430786
2018-07-05T02:33:08.563Z,18.450928
2018-07-05T02:34:13.977Z,18.450928
2018-07-05T02:35:19.382Z,18.430786
2018-07-05T02:36:24.788Z,18.450928
2018-07-05T02:37:30.194Z,18.460999
2018-07-05T02:38:35.609Z,18.48114
2018-07-05T02:39:41.017Z,18.460999
2018-07-05T02:40:46.418Z,18.460999
2018-07-05T02:41:51.818Z,18.460999
2018-07-05T02:42:57.224Z,18.48114
2018-07-05T02:44:02.638Z,18.491211
2018-07-05T02:45:08.044Z,18.48114
2018-07-05T02:46:13.446Z,18.450928
2018-07-05T02:47:18.850Z,18.450928
2018-07-05T02:48:24.251Z,18.450928
2018-07-05T02:49:29.668Z,18.450928
2018-07-05T02:50:35.076Z,18.430786
2018-07-05T02:51:40.472Z,18.410645
2018-07-05T02:52:45.878Z,18.390503
2018-07-05T02:53:51.293Z,18.360291
2018-07-05T02:54:56.700Z,18.340149
2018-07-05T02:56:02.105Z,18.330078
2018-07-05T02:57:07.510Z,18.330078
2018-07-05T02:58:12.917Z,18.279724
2018-07-05T02:59:18.339Z,18.279724
2018-07-05T03:00:24.745Z,18.269653
2018-07-05T03:01:30.138Z,18.259583
2018-07-05T03:02:35.552Z,18.259583
2018-07-05T03:03:40.948Z,18.239441
2018-07-05T03:04:46.363Z,18.209229
2018-07-05T03:05:51.796Z,18.209229
2018-07-05T03:06:57.191Z,18.199158
2018-07-05T03:08:02.590Z,18.168945
2018-07-05T03:09:08.012Z,18.128662
2018-07-05T03:10:13.408Z,18.118591
2018-07-05T03:11:18.820Z,18.108521
2018-07-05T03:12:25.218Z,18.108521
2018-07-05T03:13:30.623Z,18.088379
2018-07-05T03:14:36.036Z,18.108521
2018-07-05T03:15:41.445Z,18.058167
2018-07-05T03:16:46.850Z,18.058167
2018-07-05T03:17:52.263Z,18.078308
2018-07-05T03:18:57.666Z,18.027954
2018-07-05T03:20:03.085Z,18.007812
2018-07-05T03:21:08.486Z,18.017883
2018-07-05T03:22:13.895Z,18.007812
2018-07-05T03:23:19.300Z,17.987671
2018-07-05T03:24:24.711Z,17.967529
2018-07-05T03:25:30.117Z,17.987671
2018-07-05T03:26:35.531Z,17.967529
2018-07-05T03:27:40.938Z,17.957458
2018-07-05T03:28:46.350Z,17.937317
2018-07-05T03:29:51.764Z,17.927246
2018-07-05T03:30:57.170Z,17.927246
2018-07-05T03:32:02.573Z,17.907104
2018-07-05T03:33:07.981Z,17.907104
2018-07-05T03:34:13.385Z,17.907104
2018-07-05T03:35:18.824Z,17.897034
2018-07-05T03:36:24.231Z,17.897034
2018-07-05T03:37:29.637Z,17.876892
2018-07-05T03:38:35.044Z,17.866821
2018-07-05T03:39:40.461Z,17.836609
2018-07-05T03:40:45.867Z,17.836609
2018-07-05T03:41:51.278Z,17.836609
2018-07-05T03:42:56.677Z,17.826538
2018-07-05T03:44:02.088Z,17.786255
2018-07-05T03:45:07.498Z,17.806396
2018-07-05T03:46:12.906Z,17.786255
2018-07-05T03:47:18.307Z,17.786255
2018-07-05T03:48:23.715Z,17.776184
2018-07-05T03:49:29.114Z,17.776184
2018-07-05T03:50:35.520Z,17.756042
2018-07-05T03:51:41.052Z,17.745972
2018-07-05T03:52:46.332Z,17.745972
2018-07-05T03:53:51.729Z,17.715759
2018-07-05T03:54:57.134Z,17.705688
2018-07-05T03:56:02.554Z,17.685547
2018-07-05T03:57:07.954Z,17.675476
2018-07-05T03:58:13.362Z,17.655334
2018-07-05T03:59:18.767Z,17.675476
2018-07-05T04:00:24.179Z,17.645264
2018-07-05T04:01:29.588Z,17.615051
2018-07-05T04:02:35.003Z,17.59491
2018-07-05T04:03:40.397Z,17.574768
2018-07-05T04:04:45.803Z,17.564697
2018-07-05T04:05:51.215Z,17.564697
2018-07-05T04:06:56.618Z,17.564697
2018-07-05T04:08:02.026Z,17.574768
2018-07-05T04:09:07.432Z,17.564697
2018-07-05T04:10:12.835Z,17.564697
2018-07-05T04:11:18.251Z,17.574768
2018-07-05T04:12:23.674Z,17.564697
2018-07-05T04:13:29.070Z,17.574768
2018-07-05T04:14:34.484Z,17.59491
2018-07-05T04:15:39.889Z,17.574768
2018-07-05T04:16:45.328Z,17.574768
2018-07-05T04:17:50.736Z,17.59491
2018-07-05T04:18:56.143Z,17.574768
2018-07-05T04:20:01.555Z,17.615051
2018-07-05T04:21:06.976Z,17.625122
2018-07-05T04:22:12.422Z,17.625122
2018-07-05T04:23:17.785Z,17.625122
2018-07-05T04:24:23.191Z,17.615051
2018-07-05T04:25:28.597Z,17.645264
2018-07-05T04:26:34.016Z,17.655334
2018-07-05T04:27:39.422Z,17.685547
2018-07-05T04:28:44.828Z,17.675476
2018-07-05T04:29:50.235Z,17.685547
2018-07-05T04:30:55.641Z,17.715759
2018-07-05T04:32:01.054Z,17.705688
2018-07-05T04:33:06.459Z,17.715759
2018-07-05T04:34:11.977Z,17.715759
2018-07-05T04:35:17.268Z,17.715759
2018-07-05T04:36:22.679Z,17.72583
2018-07-05T04:37:28.085Z,17.745972
2018-07-05T04:38:33.487Z,17.72583
2018-07-05T04:39:38.893Z,17.715759
2018-07-05T04:40:44.299Z,17.705688
2018-07-05T04:41:49.714Z,17.685547
2018-07-05T04:42:56.114Z,17.675476
2018-07-05T04:44:01.518Z,17.675476
2018-07-05T04:45:06.923Z,17.685547
2018-07-05T04:46:12.328Z,17.685547
2018-07-05T04:47:17.752Z,17.705688
2018-07-05T04:48:23.153Z,17.685547
2018-07-05T04:49:28.558Z,17.715759
2018-07-05T04:50:33.973Z,17.745972
2018-07-05T04:51:39.382Z,17.745972
2018-07-05T04:52:44.787Z,17.756042
2018-07-05T04:53:51.192Z,17.756042
2018-07-05T04:54:56.599Z,17.745972
2018-07-05T04:56:02.002Z,17.756042
2018-07-05T04:57:07.410Z,17.756042
2018-07-05T04:58:12.816Z,17.756042
2018-07-05T04:59:18.222Z,17.776184
2018-07-05T05:00:23.625Z,17.776184
2018-07-05T05:01:29.026Z,17.826538
2018-07-05T05:02:34.443Z,17.806396
2018-07-05T05:03:39.843Z,17.786255
2018-07-05T05:04:45.256Z,17.806396
2018-07-05T05:05:50.662Z,17.826538
2018-07-05T05:06:56.074Z,17.826538
2018-07-05T05:08:01.484Z,17.836609
2018-07-05T05:09:06.912Z,17.866821
2018-07-05T05:10:12.318Z,17.897034
2018-07-05T05:11:17.727Z,17.876892
2018-07-05T05:12:23.147Z,17.907104
2018-07-05T05:13:28.561Z,17.907104
2018-07-05T05:14:33.965Z,17.927246
2018-07-05T05:15:39.373Z,17.937317
2018-07-05T05:16:44.783Z,17.927246
2018-07-05T05:17:50.200Z,17.927246
2018-07-05T05:18:55.661Z,17.927246
2018-07-05T05:20:01.006Z,17.927246
2018-07-05T05:21:06.414Z,17.937317
2018-07-05T05:22:11.823Z,17.937317
2018-07-05T05:23:17.244Z,17.927246
2018-07-05T05:24:22.655Z,17.927246
2018-07-05T05:25:28.065Z,17.967529
2018-07-05T05:26:33.496Z,17.967529
2018-07-05T05:27:38.905Z,17.967529
2018-07-05T05:28:44.322Z,17.967529
2018-07-05T05:29:49.726Z,17.987671
2018-07-05T05:30:56.127Z,18.007812
2018-07-05T05:32:01.523Z,18.048096
2018-07-05T05:33:06.949Z,18.027954
2018-07-05T05:34:13.343Z,18.058167
2018-07-05T05:35:18.749Z,18.058167
2018-07-05T05:36:24.154Z,18.058167
2018-07-05T05:37:29.555Z,18.078308
2018-07-05T05:38:34.968Z,18.078308
2018-07-05T05:39:40.373Z,18.108521
2018-07-05T05:40:45.780Z,18.128662
2018-07-05T05:41:51.189Z,18.128662
2018-07-05T05:42:57.579Z,18.148804
2018-07-05T05:44:03.004Z,18.168945
2018-07-05T05:45:08.412Z,18.179016
2018-07-05T05:46:13.828Z,18.209229
2018-07-05T05:47:19.231Z,18.22937
2018-07-05T05:48:24.641Z,18.259583
2018-07-05T05:49:30.068Z,18.279724
2018-07-05T05:50:35.469Z,18.299866
2018-07-05T05:51:40.878Z,18.309937
2018-07-05T05:52:46.294Z,18.330078
2018-07-05T05:53:51.707Z,18.330078
2018-07-05T05:54:57.109Z,18.330078
2018-07-05T05:56:02.514Z,18.360291
2018-07-05T05:57:08.910Z,18.340149
2018-07-05T05:58:14.317Z,18.340149
2018-07-05T05:59:19.735Z,18.340149
2018-07-05T06:00:25.145Z,18.360291
2018-07-05T06:01:30.553Z,18.380432
2018-07-05T06:02:35.959Z,18.390503
2018-07-05T06:03:41.360Z,18.420715
2018-07-05T06:04:46.777Z,18.420715
2018-07-05T06:05:52.184Z,18.420715
2018-07-05T06:06:57.591Z,18.450928
2018-07-05T06:08:03.033Z,18.48114
2018-07-05T06:09:08.398Z,18.511353
2018-07-05T06:10:13.815Z,18.521423
2018-07-05T06:11:19.216Z,18.521423
2018-07-05T06:12:24.641Z,18.561707
2018-07-05T06:13:30.045Z,18.561707
2018-07-05T06:14:35.472Z,18.60199
2018-07-05T06:15:40.879Z,18.60199
2018-07-05T06:16:46.285Z,18.632202
2018-07-05T06:17:51.692Z,18.632202
2018-07-05T06:18:57.096Z,18.642273
2018-07-05T06:20:02.512Z,18.662415
2018-07-05T06:21:07.915Z,18.642273
2018-07-05T06:22:13.316Z,18.672485
2018-07-05T06:23:18.729Z,18.682556
2018-07-05T06:24:24.137Z,18.742981
2018-07-05T06:25:29.586Z,18.753052
2018-07-05T06:26:34.957Z,18.753052
2018-07-05T06:27:40.362Z,18.763123
2018-07-05T06:28:45.767Z,18.783264
2018-07-05T06:29:51.181Z,18.793335
2018-07-05T06:30:56.586Z,18.823547
2018-07-05T06:32:01.996Z,18.833618
2018-07-05T06:33:07.398Z,18.863831
2018-07-05T06:34:12.820Z,18.883972
2018-07-05T06:35:18.224Z,18.934326
2018-07-05T06:36:23.635Z,18.944397
2018-07-05T06:37:29.035Z,18.964539
2018-07-05T06:38:34.439Z,18.98468
2018-07-05T06:39:39.889Z,19.004822
2018-07-05T06:40:45.256Z,19.004822
2018-07-05T06:41:50.657Z,19.035034
2018-07-05T06:42:56.068Z,19.075317
2018-07-05T06:44:01.471Z,19.115601
2018-07-05T06:45:06.886Z,19.125671
2018-07-05T06:46:12.290Z,19.155884
2018-07-05T06:47:17.693Z,19.165955
2018-07-05T06:48:23.099Z,19.196167
2018-07-05T06:49:28.583Z,19.216309
2018-07-05T06:50:33.917Z,19.216309
2018-07-05T06:51:39.318Z,19.23645
2018-07-05T06:52:44.724Z,19.23645
2018-07-05T06:53:50.137Z,19.266663
2018-07-05T06:54:55.545Z,19.296875
2018-07-05T06:56:00.955Z,19.317017
2018-07-05T06:57:06.363Z,19.347229
2018-07-05T06:58:11.779Z,19.367371
2018-07-05T06:59:17.236Z,19.377441
2018-07-05T07:00:22.600Z,19.407654
2018-07-05T07:01:28.006Z,19.447937
2018-07-05T07:02:33.415Z,19.498291
2018-07-05T07:03:38.822Z,19.518433
2018-07-05T07:04:44.223Z,19.538574
2018-07-05T07:05:50.629Z,19.558716
2018-07-05T07:06:56.036Z,19.598999
2018-07-05T07:08:01.505Z,19.619141
2018-07-05T07:09:06.844Z,19.629211
2018-07-05T07:10:12.246Z,19.639282
2018-07-05T07:11:17.662Z,19.669495
2018-07-05T07:12:23.076Z,19.699707
2018-07-05T07:13:28.485Z,19.719849
2018-07-05T07:14:33.885Z,19.770203
2018-07-05T07:15:39.304Z,19.790344
2018-07-05T07:16:44.712Z,19.840698
2018-07-05T07:17:50.120Z,19.86084
2018-07-05T07:18:55.520Z,19.870911
2018-07-05T07:20:00.922Z,19.901123
2018-07-05T07:21:07.328Z,19.931335
2018-07-05T07:22:12.728Z,19.941406
2018-07-05T07:23:18.141Z,19.99176
2018-07-05T07:24:23.543Z,20.021973
2018-07-05T07:25:28.955Z,20.042114
2018-07-05T07:26:34.373Z,20.072327
2018-07-05T07:27:39.777Z,20.092468
2018-07-05T07:28:45.184Z,20.11261
2018-07-05T07:29:50.592Z,20.122681
2018-07-05T07:30:56.007Z,20.152893
2018-07-05T07:32:03.399Z,20.173035
2018-07-05T07:33:08.807Z,20.223389
2018-07-05T07:34:14.210Z,20.233459
2018-07-05T07:35:19.613Z,20.193176
2018-07-05T07:36:25.028Z,20.223389
2018-07-05T07:37:30.484Z,20.233459
2018-07-05T07:38:36.111Z,20.263672
2018-07-05T07:39:42.512Z,20.293884
2018-07-05T07:40:47.924Z,20.293884
2018-07-05T07:41:53.334Z,20.303955
2018-07-05T07:42:58.737Z,20.344238
2018-07-05T07:44:04.146Z,20.394592
2018-07-05T07:45:09.551Z,20.394592
2018-07-05T07:46:14.970Z,20.444946
2018-07-05T07:47:20.372Z,20.424805
2018-07-05T07:48:25.778Z,20.455017
2018-07-05T07:49:31.186Z,20.485229
2018-07-05T07:50:36.590Z,20.515442
2018-07-05T07:51:42.006Z,20.515442
2018-07-05T07:52:47.408Z,20.525513
2018-07-05T07:53:52.817Z,20.555725
2018-07-05T07:54:58.228Z,20.575867
2018-07-05T07:56:03.631Z,20.596008
2018-07-05T07:57:09.054Z,20.626221
2018-07-05T07:58:14.530Z,20.666504
2018-07-05T07:59:19.869Z,20.696716
2018-07-05T08:00:25.278Z,20.726929
2018-07-05T08:01:30.706Z,20.74707
2018-07-05T08:02:36.108Z,20.767212
2018-07-05T08:03:41.515Z,20.787354
2018-07-05T08:04:46.918Z,20.817566
2018-07-05T08:05:52.327Z,20.817566
2018-07-05T08:06:57.746Z,20.857849
2018-07-05T08:08:03.177Z,20.888062
2018-07-05T08:09:08.565Z,20.918274
2018-07-05T08:10:13.974Z,20.918274
2018-07-05T08:11:19.383Z,20.928345
2018-07-05T08:12:24.802Z,20.968628
2018-07-05T08:13:31.192Z,20.978699
2018-07-05T08:14:36.598Z,20.978699
2018-07-05T08:15:42.006Z,21.029053
2018-07-05T08:16:47.430Z,21.049194
2018-07-05T08:17:52.840Z,21.079407
2018-07-05T08:18:58.259Z,21.109619
2018-07-05T08:20:03.678Z,21.129761
2018-07-05T08:21:09.079Z,21.180115
2018-07-05T08:22:14.499Z,21.200256
2018-07-05T08:23:19.905Z,21.25061
2018-07-05T08:24:26.305Z,21.260681
2018-07-05T08:25:31.701Z,21.300964
2018-07-05T08:26:37.107Z,21.351318
2018-07-05T08:27:42.520Z,21.381531
2018-07-05T08:28:47.924Z,21.431885
2018-07-05T08:29:53.337Z,21.441956
2018-07-05T08:30:58.733Z,21.50238
2018-07-05T08:32:04.148Z,21.532593
2018-07-05T08:33:09.552Z,21.562805
2018-07-05T08:34:14.956Z,21.603088
2018-07-05T08:35:20.366Z,21.633301
2018-07-05T08:36:25.775Z,21.663513
2018-07-05T08:37:31.190Z,21.713867
2018-07-05T08:38:36.601Z,21.74408
2018-07-05T08:39:42.006Z,21.75415
2018-07-05T08:40:47.412Z,21.804504
2018-07-05T08:41:52.829Z,21.824646
2018-07-05T08:42:58.240Z,21.875
2018-07-05T08:44:03.647Z,21.955566
2018-07-05T08:45:09.073Z,21.965637
2018-07-05T08:46:14.475Z,22.026062
2018-07-05T08:47:19.905Z,22.056274
2018-07-05T08:48:25.308Z,22.086487
2018-07-05T08:49:30.751Z,22.12677
2018-07-05T08:50:36.130Z,22.146912
2018-07-05T08:51:41.531Z,22.156982
2018-07-05T08:52:46.953Z,22.156982
2018-07-05T08:53:52.366Z,22.187195
2018-07-05T08:54:57.776Z,22.217407
2018-07-05T08:56:03.182Z,22.217407
2018-07-05T08:57:08.584Z,22.227478
2018-07-05T08:58:14.014Z,22.24762
2018-07-05T08:59:20.400Z,22.297974
2018-07-05T09:00:26.801Z,22.277832
2018-07-05T09:01:33.200Z,22.338257
2018-07-05T09:02:38.616Z,22.358398
2018-07-05T09:03:44.022Z,22.358398
2018-07-05T09:04:49.429Z,22.368469
2018-07-05T09:05:54.840Z,22.37854
2018-07-05T09:07:00.238Z,22.428894
2018-07-05T09:08:05.662Z,22.408752
2018-07-05T09:09:11.067Z,22.459106
2018-07-05T09:10:16.473Z,22.479248
2018-07-05T09:11:21.886Z,22.50946
2018-07-05T09:12:27.282Z,22.529602
2018-07-05T09:13:32.700Z,22.559814
2018-07-05T09:14:38.105Z,22.579956
2018-07-05T09:15:43.512Z,22.610168
2018-07-05T09:16:48.919Z,22.620239
2018-07-05T09:17:54.550Z,22.660522
2018-07-05T09:18:59.751Z,22.670593
2018-07-05T09:20:05.154Z,22.700806
2018-07-05T09:21:10.566Z,22.710876
2018-07-05T09:22:15.975Z,22.731018
2018-07-05T09:23:21.442Z,22.76123
2018-07-05T09:24:26.853Z,22.781372
2018-07-05T09:25:32.260Z,22.811584
2018-07-05T09:26:37.697Z,22.851868
2018-07-05T09:27:43.101Z,22.88208
2018-07-05T09:28:48.504Z,22.912292
2018-07-05T09:29:53.909Z,22.932434
2018-07-05T09:30:59.316Z,22.952576
2018-07-05T09:32:05.714Z,22.982788
2018-07-05T09:33:11.134Z,23.013
2018-07-05T09:34:16.543Z,23.033142
2018-07-05T09:35:21.962Z,23.063354
2018-07-05T09:36:27.360Z,23.083496
2018-07-05T09:37:32.775Z,23.13385
2018-07-05T09:38:38.252Z,23.153992
2018-07-05T09:39:43.664Z,23.174133
2018-07-05T09:40:49.069Z,23.214417
2018-07-05T09:41:54.471Z,23.234558
2018-07-05T09:42:59.886Z,23.284912
2018-07-05T09:44:05.291Z,23.305054
2018-07-05T09:45:10.705Z,23.305054
2018-07-05T09:46:16.107Z,23.335266
2018-07-05T09:47:22.503Z,23.335266
2018-07-05T09:48:27.920Z,23.325195
2018-07-05T09:49:33.324Z,23.365479
2018-07-05T09:50:38.731Z,23.365479
2018-07-05T09:51:45.133Z,23.405762
2018-07-05T09:52:51.578Z,23.415833
2018-07-05T09:53:56.953Z,23.435974
2018-07-05T09:55:04.347Z,23.476257
2018-07-05T09:56:09.754Z,23.476257
2018-07-05T09:57:15.158Z,23.516541
2018-07-05T09:58:20.576Z,23.50647
2018-07-05T09:59:25.986Z,23.536682
2018-07-05T10:00:31.394Z,23.536682
2018-07-05T10:01:36.801Z,23.556824
2018-07-05T10:02:42.212Z,23.587036
2018-07-05T10:03:47.662Z,23.597107
2018-07-05T10:04:53.035Z,23.63739
2018-07-05T10:05:58.439Z,23.657532
2018-07-05T10:07:03.849Z,23.707886
2018-07-05T10:08:10.264Z,23.707886
2018-07-05T10:09:15.680Z,23.738098
2018-07-05T10:10:21.076Z,23.738098
2018-07-05T10:11:26.485Z,23.808594
2018-07-05T10:12:31.897Z,23.818665
2018-07-05T10:13:37.648Z,23.818665
2018-07-05T10:14:42.733Z,23.838806
2018-07-05T10:15:48.139Z,23.858948
2018-07-05T10:16:54.540Z,23.88916
2018-07-05T10:17:59.948Z,23.909302
2018-07-05T10:19:05.366Z,23.939514
2018-07-05T10:20:10.765Z,23.969727
2018-07-05T10:21:16.168Z,23.969727
2018-07-05T10:22:21.586Z,23.999939
2018-07-05T10:23:27.001Z,24.01001
2018-07-05T10:24:32.406Z,24.030151
2018-07-05T10:25:37.813Z,24.040222
2018-07-05T10:26:45.204Z,24.080505
2018-07-05T10:27:50.608Z,24.100647
2018-07-05T10:28:56.020Z,24.130859
2018-07-05T10:30:01.427Z,24.151001
2018-07-05T10:31:06.830Z,24.130859
2018-07-05T10:32:12.234Z,24.161072
2018-07-05T10:33:17.640Z,24.161072
2018-07-05T10:34:23.060Z,24.191284
2018-07-05T10:35:28.467Z,24.221497
2018-07-05T10:36:33.875Z,24.231567
2018-07-05T10:37:39.435Z,24.251709
2018-07-05T10:38:44.866Z,24.291992
2018-07-05T10:39:50.267Z,24.332275
2018-07-05T10:40:55.672Z,24.362488
2018-07-05T10:42:01.084Z,24.372559
2018-07-05T10:43:06.493Z,24.362488
2018-07-05T10:44:11.907Z,24.372559
2018-07-05T10:45:17.316Z,24.412842
2018-07-05T10:46:22.729Z,24.443054
2018-07-05T10:47:28.169Z,24.483337
2018-07-05T10:48:33.599Z,24.533691
2018-07-05T10:49:39.012Z,24.584045
2018-07-05T10:50:44.418Z,24.584045
2018-07-05T10:51:49.825Z,24.604187
2018-07-05T10:52:55.237Z,24.624329
2018-07-05T10:54:00.658Z,24.634399
2018-07-05T10:55:06.063Z,24.654541
2018-07-05T10:56:11.474Z,24.714966
2018-07-05T10:57:16.877Z,24.714966
2018-07-05T10:58:22.281Z,24.735107
2018-07-05T10:59:27.701Z,24.775391
2018-07-05T11:00:33.105Z,24.835815
2018-07-05T11:01:38.513Z,24.845886
2018-07-05T11:02:44.908Z,24.855957
2018-07-05T11:03:50.311Z,24.886169
2018-07-05T11:04:55.742Z,24.886169
2018-07-05T11:06:01.151Z,24.886169
2018-07-05T11:07:06.556Z,24.855957
2018-07-05T11:08:11.965Z,24.89624
2018-07-05T11:09:17.384Z,24.936523
2018-07-05T11:10:22.795Z,24.956665
2018-07-05T11:11:28.205Z,25.027161
2018-07-05T11:12:33.609Z,25.037231
2018-07-05T11:13:39.017Z,25.077515
2018-07-05T11:14:44.485Z,25.077515
2018-07-05T11:15:50.831Z,25.037231
2018-07-05T11:16:56.240Z,25.057373
2018-07-05T11:18:01.652Z,25.077515
2018-07-05T11:19:07.087Z,25.077515
2018-07-05T11:20:12.494Z,25.057373
2018-07-05T11:21:18.893Z,25.037231
2018-07-05T11:22:24.299Z,25.077515
2018-07-05T11:23:29.716Z,25.087585
2018-07-05T11:24:35.133Z,25.087585
2018-07-05T11:25:40.543Z,25.107727
2018-07-05T11:26:45.946Z,25.077515
2018-07-05T11:27:51.353Z,25.087585
2018-07-05T11:28:56.766Z,25.117798
2018-07-05T11:30:02.188Z,25.117798
2018-07-05T11:31:07.590Z,25.158081
2018-07-05T11:32:13.002Z,25.188293
2018-07-05T11:33:18.406Z,25.218506
2018-07-05T11:34:23.823Z,25.228577
2018-07-05T11:35:29.233Z,25.26886
2018-07-05T11:36:34.681Z,25.299072
2018-07-05T11:37:40.085Z,25.309143
2018-07-05T11:38:45.491Z,25.339355
2018-07-05T11:39:50.909Z,25.359497
2018-07-05T11:40:56.320Z,25.39978
2018-07-05T11:42:01.730Z,25.39978
2018-07-05T11:43:07.144Z,25.409851
2018-07-05T11:44:12.561Z,25.460205
2018-07-05T11:45:17.974Z,25.480347
2018-07-05T11:46:23.378Z,25.510559
2018-07-05T11:47:28.786Z,25.510559
2018-07-05T11:48:34.191Z,25.550842
2018-07-05T11:49:39.594Z,25.581055
2018-07-05T11:50:45.007Z,25.591125
2018-07-05T11:51:50.421Z,25.631409
2018-07-05T11:52:55.847Z,25.661621
2018-07-05T11:54:01.266Z,25.701904
2018-07-05T11:55:06.707Z,25.711975
2018-07-05T11:56:12.114Z,25.711975
2018-07-05T11:57:17.522Z,25.732117
2018-07-05T11:58:22.930Z,25.752258
2018-07-05T11:59:28.340Z,25.782471
2018-07-05T12:00:33.768Z,25.7724
2018-07-05T12:01:39.173Z,25.752258
2018-07-05T12:02:44.606Z,25.7724
2018-07-05T12:03:49.985Z,25.752258
2018-07-05T12:04:55.389Z,25.742188
2018-07-05T12:06:00.808Z,25.752258
2018-07-05T12:07:06.218Z,25.7724
2018-07-05T12:08:11.622Z,25.7724
2018-07-05T12:09:17.028Z,25.782471
2018-07-05T12:10:22.492Z,25.7724
2018-07-05T12:11:27.913Z,25.832825
2018-07-05T12:12:33.308Z,25.863037
2018-07-05T12:13:38.722Z,25.923462
2018-07-05T12:14:44.132Z,25.953674
2018-07-05T12:15:49.552Z,25.983887
2018-07-05T12:16:54.987Z,26.034241
2018-07-05T12:18:01.380Z,26.044312
2018-07-05T12:19:06.791Z,26.074524
2018-07-05T12:20:13.190Z,26.104736
2018-07-05T12:21:18.605Z,26.124878
2018-07-05T12:22:24.018Z,26.114807
2018-07-05T12:23:29.422Z,26.104736
2018-07-05T12:24:34.829Z,26.104736
2018-07-05T12:25:40.241Z,26.084595
2018-07-05T12:26:45.659Z,26.104736
2018-07-05T12:27:51.085Z,26.114807
2018-07-05T12:28:56.477Z,26.124878